Skip Navigation Linkwww.weather.gov 
NOAA logo - Select to go to the NOAA homepage National Weather Service
 Headquarters Office   NWS logo
NWS Office of the Chief Information Officer/Telecommunication Operations Center
 
   

Current Weather Conditions:
Station name not available

(

Conditions at

2014.10.01 1800 UTC
Wind from the E (080 degrees) at 2 MPH (2 KT)
Visibility greater than 7 mile(s)
Sky conditions partly cloudy
Temperature 80 F (27 C)
Dew Point 77 F (25 C)
Relative Humidity 88%
Pressure (altimeter) 29.83 in. Hg (1010 hPa)
ob WIDD 011800Z AUTO VRB02KT 9999NDV FEW037 SCT045 SCT055 27/25 Q1010 METAR WADD 011800Z 08002KT 9999 SCT017 25/23 Q1012 NOSIG

24 Hour Summary

Time
EDT (UTC)
Temperature
F (C)
Dew Point
F (C)
Pressure
Inches (hPa)
Wind
MPH
Weather
Latest 2 PM (18) Oct 01 80 (27) 77 (25) 29.83 (1010) E 2
1 PM (17) Oct 01 80 (27) 77 (25) 29.83 (1010) SE 5
Noon (16) Oct 01 80 (27) 77 (25) 29.83 (1010) SE 5
11 AM (15) Oct 01 80 (27) 77 (25) 29.85 (1011) ESE 5
10 AM (14) Oct 01 80 (27) 77 (25) 29.85 (1011) SE 3
9 AM (13) Oct 01 82 (28) 77 (25) 29.85 (1011) ESE 5
8 AM (12) Oct 01 84 (29) 77 (25) 29.83 (1010) ESE 12
7 AM (11) Oct 01 82 (28) 77 (25) 29.80 (1009) SE 5
6 AM (10) Oct 01 84 (29) 77 (25) 29.77 (1008) SE 6
5 AM (9) Oct 01 84 (29) 77 (25) 29.74 (1007) SSE 12
4 AM (8) Oct 01 84 (29) 77 (25) 29.74 (1007) NE 13 haze
3 AM (7) Oct 01 87 (31) 77 (25) 29.77 (1008) ESE 7
2 AM (6) Oct 01 89 (32) 75 (24) 29.77 (1008) ESE 12
1 AM (5) Oct 01 89 (32) 77 (25) 29.80 (1009) S 7
Midnight (4) Oct 01 89 (32) 75 (24) 29.83 (1010) SSE 7
11 PM (3) Sep 30 87 (31) 77 (25) 29.85 (1011) SE 7
10 PM (2) Sep 30 86 (30) 77 (25) 29.88 (1012) E 12
9 PM (1) Sep 30 82 (28) 77 (25) 29.88 (1012) ESE 12
8 PM (0) Sep 30 82 (28) 78 (26) 29.85 (1011) ESE 6
7 PM (23) Sep 30 78 (26) 77 (25) 29.85 (1011) E 3
6 PM (22) Sep 30 77 (25) 77 (25) 29.83 (1010) SE 3
5 PM (21) Sep 30 77 (25) 77 (25) 29.83 (1010) Calm
4 PM (20) Sep 30 77 (25) 77 (25) 29.80 (1009) Calm
Oldest 3 PM (19) Sep 30 77 (25) 77 (25) 29.80 (1009) Calm
Time
EDT (UTC)
Temperature
F(C)
Dew Point
F(C)
Pressure
Inches(hPa)
Wind
(MPH)
Weather

The information presented here is taken from products produced by the U.S. National Weather Service and other national and international agencies




US Dept of Commerce
National Oceanic and Atmospheric Administration
National Weather Service
1325 East West Highway
Silver Spring, MD 20910
Page Author: NWS Internet Services Team
Disclaimer
Feedback
Privacy Notice
Credits